PST,Max TemperatureF,Mean TemperatureF,Min TemperatureF,Max Dew PointF,MeanDew PointF,Min DewpointF,Max Humidity, Mean Humidity, Min Humidity, Max Sea Level PressureIn, Mean Sea Level PressureIn, Min Sea Level PressureIn, Max VisibilityMiles, Mean VisibilityMiles, Min VisibilityMiles, Max Wind SpeedMPH, Mean Wind SpeedMPH, Max Gust SpeedMPH,PrecipitationIn, CloudCover, Events, WindDirDegrees
2011-11-1,48,37,25,24,20,15,81,55,28,30.53,30.45,30.29,10,10,7,16,7,22,0.00,1,,264
2011-11-2,52,39,26,23,17,9,81,49,17,30.50,30.21,29.87,10,10,10,17,8,23,0.00,3,,127
2011-11-3,45,40,34,36,27,12,100,64,27,29.86,29.79,29.74,10,9,7,14,6,18,0.06,8,Rain,227
2011-11-4,43,37,31,34,29,22,100,76,51,29.80,29.75,29.69,10,9,7,15,6,18,T,7,,292
2011-11-5,40,32,24,27,25,21,100,77,54,29.90,29.83,29.75,10,10,10,13,4,17,0.00,4,,151
2011-11-6,41,31,20,28,23,18,100,73,46,30.17,30.00,29.89,10,8,0,6,1,7,0.00,4,Fog,64
2011-11-7,39,32,24,34,27,21,92,81,70,30.25,30.20,30.15,10,10,10,14,8,17,T,6,Rain,170
2011-11-8,47,39,30,35,32,29,100,77,53,30.41,30.29,30.17,10,9,5,13,7,17,0.00,6,,185
2011-11-9,50,40,30,33,30,28,92,67,42,30.48,30.39,30.29,10,9,6,15,6,20,0.00,5,,67
2011-11-10,52,41,30,31,26,23,100,66,32,30.25,30.13,29.97,10,9,5,16,5,21,0.00,5,,132
2011-11-11,48,37,26,37,27,21,92,63,34,29.94,29.59,29.36,10,10,7,41,15,52,0.04,6,Fog-Rain-Snow,189
2011-11-12,39,35,30,34,29,24,100,85,69,29.75,29.58,29.38,10,6,0,30,19,39,0.25,8,Fog-Rain-Snow,222
2011-11-13,47,41,34,34,30,25,92,67,42,29.74,29.60,29.46,10,10,7,33,19,41,T,4,Rain,227
2011-11-14,47,35,22,32,24,15,89,64,38,30.02,29.78,29.62,10,10,9,31,15,41,T,4,Snow,264
2011-11-15,39,30,21,21,14,4,77,50,22,30.34,30.20,30.01,10,10,10,20,8,,0.00,3,,231
2011-11-16,36,27,18,34,20,12,96,75,54,30.35,30.10,29.70,10,7,2,21,9,29,0.12,6,Rain-Snow,102
2011-11-17,41,37,32,39,31,25,100,80,59,29.78,29.67,29.56,10,9,2,32,14,37,0.18,6,Rain-Snow,192
2011-11-18,33,27,21,32,28,19,100,96,92,29.76,29.57,29.50,10,3,0,15,8,18,0.21,8,Fog-Snow,160
2011-11-19,24,22,19,21,19,17,92,87,81,29.97,29.84,29.70,10,7,0,14,8,16,0.05,8,Fog-Snow,40
2011-11-20,28,25,22,25,22,21,100,89,78,30.03,29.94,29.88,10,6,1,10,4,12,T,8,,42
2011-11-21,39,33,26,34,29,24,100,87,73,30.16,29.86,29.80,10,5,0,17,8,23,0.20,8,Rain-Snow,154
2011-11-22,49,43,36,44,38,34,92,83,74,29.79,29.71,29.66,10,9,5,20,16,31,0.33,8,Rain,169
2011-11-23,56,48,39,45,34,24,93,62,30,29.72,29.61,29.52,10,10,7,41,19,52,0.13,8,Rain,202
2011-11-24,43,37,31,39,35,31,100,84,67,29.84,29.75,29.65,10,8,1,30,11,37,0.16,6,Rain-Snow,184
2011-11-25,39,34,28,38,26,21,100,76,52,30.58,30.21,29.73,10,10,10,30,17,37,0.00,3,,230
2011-11-26,39,34,29,27,25,22,81,67,52,30.57,30.48,30.33,10,10,10,13,5,17,0.00,7,,78
2011-11-27,50,40,30,41,30,25,100,73,45,30.30,30.13,29.99,10,10,10,26,14,32,T,6,Rain,183
2011-11-28,44,37,29,38,33,28,100,83,65,30.44,30.39,30.24,10,7,0,14,4,18,0.00,6,Fog,177
2011-11-29,39,34,28,36,32,27,100,93,85,30.40,30.25,30.05,10,4,0,15,3,17,T,8,Fog,170
2011-11-30,44,36,28,32,30,22,100,81,62,30.73,30.34,30.11,10,6,1,17,6,22,T,5,Fog-Snow,257